ADDS METAR Data INFO
IDs: Format: Raw Decoded Include TAF

Data at: 1034 UTC 18 Aug 2017

KRKP 180953Z AUTO 18007KT 10SM 28/25 A2997 RMK AO2 SLP151 T02830250 $
KRKP 180853Z AUTO 17005KT 10SM 29/25 A2998 RMK AO2 SLP154 T02890250 56011 $
KRKP 180753Z AUTO 18006KT 10SM 29/25 A2999 RMK AO2 SLP156 T02890250 $
KRKP 180653Z AUTO 15007KT 10SM 29/25 A3000 RMK AO2 SLP161 T02890250 $
KRKP 180553Z AUTO 10SM A3001 RMK AO2 SLP165 403330278 50007 $
KRKP 180453Z AUTO 16008KT 10SM 29/25 A3002 RMK AO2 SLP166 T02940250 $
KRKP 180353Z AUTO 15011KT 10SM 29/25 A3001 RMK AO2 SLP165 T02940250 $
KRKP 180253Z AUTO 15008KT 10SM 29/25 A3000 RMK AO2 SLP159 T02940250 53022 $
KRKP 180153Z AUTO 13010KT 10SM 29/25 A2997 RMK AO2 SLP151 T02940250 $
KRKP 180053Z AUTO 14015KT 10SM 31/24 A2994 RMK AO2 SLP139 T03110244 $
KRKP 172353Z AUTO 14014KT 10SM 32/24 A2993 RMK AO2 SLP137 T03220244 56017 $
KRKP 172253Z AUTO 14017KT 10SM 33/24 A2993 RMK AO2 SLP138 T03330239 $
KRKP 172153Z AUTO 13010KT 10SM 33/24 A2995 RMK AO2 SLP144 T03280239 $
KRKP 172053Z AUTO 14008KT 10SM 33/25 A2998 RMK AO2 SLP154 T03280250 58018 $
KRKP 171953Z AUTO 10SM A3000 RMK AO2 SLP162 $
KRKP 171853Z AUTO 15013KT 10SM 33/24 A3002 RMK AO2 SLP168 T03280244 $
KRKP 171753Z AUTO 17009KT 10SM 33/24 A3003 RMK AO2 SLP171 T03280244 10333 20278 50005 $
KRKP 171653Z AUTO 17011G17KT 10SM FEW022 SCT027 33/24 A3004 RMK AO2 SLP174 T03280244
KRKP 171553Z AUTO 18011G18KT 10SM CLR 32/24 A3003 RMK AO2 SLP170 T03170244
KRKP 171453Z AUTO 19006G15KT 9SM FEW018 SCT028 30/25 A3002 RMK AO2 SLP166 T03000250 51013
KRKP 171437Z AUTO 19008G14KT 9SM SCT018 29/25 A3002 RMK AO2 T02940250
KRKP 171403Z AUTO 16007G14KT 8SM SCT016 BKN020 29/26 A3001 RMK AO2 T02940256
KRKP 171353Z AUTO 16009KT 8SM BKN014 BKN020 29/26 A3001 RMK AO2 SLP163 T02890256
KRKP 171253Z AUTO 17006KT 7SM BKN017 OVC021 28/26 A2999 RMK AO2 SLP158 T02830256
KRKP 171232Z AUTO 18006KT 7SM BKN017 28/26 A2999 RMK AO2 T02830256
KRKP 171153Z AUTO 18006KT 9SM FEW016 28/25 A2998 RMK AO2 SLP153 T02780250 10294 20278 53005
KRKP 171053Z AUTO 19009G14KT 9SM SCT017 28/25 A2997 RMK AO2 SLP151 T02830250
KRKP 170953Z AUTO 18009G17KT 150V210 9SM CLR 28/25 A2997 RMK AO2 SLP149 T02830250
KRKP 170853Z AUTO 17012G17KT 8SM SCT015 28/26 A2997 RMK AO2 SLP148 T02830256 50000
KRKP 170753Z AUTO 18011G20KT 8SM CLR 29/26 A2997 RMK AO2 SLP150 T02890261
KRKP 170703Z AUTO 17011G20KT 9SM SCT015 29/26 A2997 RMK AO2 T02890256 TSNO
KRKP 170653Z AUTO 17011G17KT 8SM BKN015 29/26 A2998 RMK AO2 SLP153 T02890261 TSNO
KRKP 170610Z AUTO 17011G18KT 8SM SCT013 BKN021 29/26 A2997 RMK AO2 T02890261 TSNO
KRKP 170553Z AUTO 16008G17KT 8SM SCT013 SCT019 29/26 A2997 RMK AO2 SLP148 T02890261 10311 20289 403440283 53005 TSNO
KRKP 170453Z AUTO 15012G20KT 8SM CLR 29/26 A2994 RMK AO2 SLP141 T02940261 TSNO
KRKP 170353Z AUTO 16008G17KT 8SM CLR 29/26 A2995 RMK AO2 SLP144 T02940261 TSNO
KRKP 170253Z AUTO 15012G18KT 8SM CLR 30/26 A2995 RMK AO2 SLP143 T03000261 53018
KRKP 170153Z AUTO 14010KT 8SM CLR 30/26 A2993 RMK AO2 SLP137 T03000261
KRKP 170053Z AUTO 15011G17KT 8SM CLR 30/26 A2991 RMK AO2 SLP130 T03000261
KRKP 162353Z AUTO 14015G21KT 8SM CLR 31/26 A2990 RMK AO2 SLP126 T03110256 10344 20311 55006
KRKP 162253Z AUTO 14013G19KT 9SM CLR 33/26 A2990 RMK AO2 SLP125 T03280256